Time;durP1;ratioP1;P1;durP2;ratioP2;P2;SDS_P1;SDS_P2;PMS_P1;PMS_P2;Temp;Humidity;BMP_temperature;BMP_pressure;BME280_temperature;BME280_humidity;BME280_pressure;Samples;Min_cycle;Max_cycle;Signal;HPM_P1;HPM_P2
2022/09/23 00:02:00;;;;;;;0.50;0.50;;;;;;;;;;5072212;28;20201;-81
2022/09/23 00:04:28;;;;;;;0.90;0.90;;;;;;;;;;5072183;28;20632;-81
2022/09/23 00:06:55;;;;;;;1.20;1.20;;;;;;;;;;5072478;28;20255;-81
2022/09/23 00:09:23;;;;;;;0.90;0.90;;;;;;;;;;5071769;28;20224;-82
2022/09/23 00:11:50;;;;;;;0.70;0.70;;;;;;;;;;5072331;28;20201;-81
2022/09/23 00:14:18;;;;;;;0.70;0.70;;;;;;;;;;5071812;28;20968;-81
2022/09/23 00:16:45;;;;;;;0.60;0.60;;;;;;;;;;5072475;28;20231;-81
2022/09/23 00:19:12;;;;;;;0.83;0.83;;;;;;;;;;5071801;28;20264;-81
2022/09/23 00:21:38;;;;;;;0.73;0.73;;;;;;;;;;5072066;28;20638;-81
2022/09/23 00:24:06;;;;;;;0.80;0.80;;;;;;;;;;5071017;28;20205;-81
2022/09/23 00:26:33;;;;;;;0.87;0.87;;;;;;;;;;5071853;28;20204;-81
2022/09/23 00:29:00;;;;;;;0.70;0.70;;;;;;;;;;5071817;28;20221;-81
2022/09/23 00:31:29;;;;;;;0.97;0.97;;;;;;;;;;5071940;28;20279;-81
2022/09/23 00:33:57;;;;;;;1.00;1.00;;;;;;;;;;5071516;28;20251;-80
2022/09/23 00:36:25;;;;;;;0.80;0.80;;;;;;;;;;5071451;28;20196;-81
2022/09/23 00:38:52;;;;;;;0.73;0.73;;;;;;;;;;5071819;28;20852;-81
2022/09/23 00:41:19;;;;;;;0.60;0.60;;;;;;;;;;5071309;28;20246;-81
2022/09/23 00:43:47;;;;;;;0.70;0.70;;;;;;;;;;5070945;28;20201;-81
2022/09/23 00:46:17;;;;;;;0.80;0.80;;;;;;;;;;5071810;28;20625;-81
2022/09/23 00:48:46;;;;;;;0.90;0.90;;;;;;;;;;5057448;28;20212;-81
2022/09/23 00:51:18;;;;;;;0.60;0.60;;;;;;;;;;5071034;28;20216;-81
2022/09/23 00:53:46;;;;;;;1.40;1.30;;;;;;;;;;5070999;28;20205;-81
2022/09/23 00:56:14;;;;;;;0.70;0.70;;;;;;;;;;5071395;28;20209;-81
2022/09/23 00:58:42;;;;;;;0.70;0.70;;;;;;;;;;5070724;28;20201;-81
2022/09/23 01:01:09;;;;;;;0.70;0.70;;;;;;;;;;5071381;28;20223;-81
2022/09/23 01:03:36;;;;;;;0.50;0.50;;;;;;;;;;5070467;28;20576;-81
2022/09/23 01:06:05;;;;;;;0.80;0.80;;;;;;;;;;5071178;28;20201;-81
2022/09/23 01:08:32;;;;;;;1.17;1.07;;;;;;;;;;5070614;28;20204;-81
2022/09/23 01:11:05;;;;;;;0.80;0.80;;;;;;;;;;5070903;28;20591;-81
2022/09/23 01:13:36;;;;;;;0.70;0.70;;;;;;;;;;5070848;28;20208;-81
2022/09/23 01:16:06;;;;;;;1.07;1.07;;;;;;;;;;5070592;28;20220;-81
2022/09/23 01:18:37;;;;;;;0.80;0.80;;;;;;;;;;5070493;28;20266;-81
2022/09/23 01:21:15;;;;;;;1.20;1.10;;;;;;;;;;5057030;28;20694;-81
2022/09/23 01:24:22;;;;;;;1.17;0.80;;;;;;;;;;5070861;28;20205;-81
2022/09/23 01:26:56;;;;;;;1.10;1.00;;;;;;;;;;5071039;28;20204;-81
2022/09/23 01:29:42;;;;;;;0.63;0.63;;;;;;;;;;5070256;28;20212;-81
2022/09/23 01:32:15;;;;;;;0.70;0.70;;;;;;;;;;5070847;28;20208;-81
2022/09/23 01:34:47;;;;;;;1.30;1.10;;;;;;;;;;5070269;28;20259;-81
2022/09/23 01:37:19;;;;;;;1.00;1.00;;;;;;;;;;5070167;28;20236;-81
2022/09/23 01:39:52;;;;;;;1.30;1.20;;;;;;;;;;5070701;28;20742;-81
2022/09/23 01:42:28;;;;;;;0.70;0.70;;;;;;;;;;5070628;28;20209;-81
2022/09/23 01:44:57;;;;;;;0.70;0.70;;;;;;;;;;5070337;28;20210;-81
2022/09/23 01:47:29;;;;;;;0.60;0.60;;;;;;;;;;5070301;28;20219;-81
2022/09/23 01:49:59;;;;;;;0.90;0.90;;;;;;;;;;5070565;28;20221;-81
2022/09/23 01:52:29;;;;;;;0.90;0.90;;;;;;;;;;5070619;28;20201;-81
2022/09/23 01:55:07;;;;;;;0.60;0.60;;;;;;;;;;5070163;28;20197;-81
2022/09/23 01:57:36;;;;;;;0.70;0.70;;;;;;;;;;5070518;28;20201;-81
2022/09/23 02:00:07;;;;;;;0.80;0.80;;;;;;;;;;5070091;28;20977;-82
2022/09/23 02:02:48;;;;;;;1.00;1.00;;;;;;;;;;5070230;28;20567;-81
2022/09/23 02:05:18;;;;;;;1.00;1.00;;;;;;;;;;5070153;28;20201;-81
2022/09/23 02:07:49;;;;;;;0.53;0.53;;;;;;;;;;5070164;28;20201;-81
2022/09/23 02:10:20;;;;;;;0.60;0.60;;;;;;;;;;5069990;28;20649;-81
2022/09/23 02:12:48;;;;;;;0.80;0.80;;;;;;;;;;5070426;28;20232;-81
2022/09/23 02:15:17;;;;;;;0.90;0.90;;;;;;;;;;5069973;28;20205;-81
2022/09/23 02:17:49;;;;;;;0.87;0.87;;;;;;;;;;5070259;28;20598;-81
2022/09/23 02:20:19;;;;;;;0.70;0.70;;;;;;;;;;5070507;28;20634;-81
2022/09/23 02:22:51;;;;;;;0.70;0.70;;;;;;;;;;5069775;28;20667;-81
2022/09/23 02:25:19;;;;;;;0.93;0.93;;;;;;;;;;5070190;28;20201;-81
2022/09/23 02:27:48;;;;;;;0.70;0.70;;;;;;;;;;5069612;28;20206;-81
2022/09/23 02:30:17;;;;;;;0.93;0.93;;;;;;;;;;5067004;28;20217;-81
2022/09/23 02:32:51;;;;;;;0.70;0.70;;;;;;;;;;5068204;28;20225;-80
2022/09/23 02:35:21;;;;;;;0.80;0.80;;;;;;;;;;5069576;28;20209;-81
2022/09/23 02:37:54;;;;;;;0.67;0.67;;;;;;;;;;5069703;28;20592;-81
2022/09/23 02:40:25;;;;;;;0.70;0.70;;;;;;;;;;5070264;28;20213;-80
2022/09/23 02:43:01;;;;;;;0.67;0.67;;;;;;;;;;5069939;28;20736;-80
2022/09/23 02:45:28;;;;;;;0.60;0.60;;;;;;;;;;5069935;28;20196;-81
2022/09/23 02:48:01;;;;;;;0.87;0.87;;;;;;;;;;5070249;28;20215;-81
2022/09/23 02:50:29;;;;;;;0.70;0.70;;;;;;;;;;5060675;28;20278;-81
2022/09/23 02:52:56;;;;;;;0.80;0.80;;;;;;;;;;5073595;28;20203;-81
2022/09/23 02:55:25;;;;;;;1.40;0.90;;;;;;;;;;5073032;28;20216;-80
2022/09/23 02:57:52;;;;;;;1.00;1.00;;;;;;;;;;5073402;28;20205;-81
2022/09/23 03:00:19;;;;;;;0.90;0.90;;;;;;;;;;5073082;28;20200;-81
2022/09/23 03:03:05;;;;;;;1.03;1.03;;;;;;;;;;5073631;28;20209;-81
2022/09/23 03:05:35;;;;;;;0.90;0.90;;;;;;;;;;5073097;28;20254;-81
2022/09/23 03:08:12;;;;;;;1.07;0.90;;;;;;;;;;5072624;28;20197;-81
2022/09/23 03:10:45;;;;;;;0.60;0.60;;;;;;;;;;5069825;28;20220;-81
2022/09/23 03:13:16;;;;;;;0.80;0.80;;;;;;;;;;5071532;28;20205;-81
2022/09/23 03:15:50;;;;;;;0.80;0.80;;;;;;;;;;5071551;28;20281;-80
2022/09/23 03:18:24;;;;;;;0.80;0.80;;;;;;;;;;5071454;28;20220;-81
2022/09/23 03:20:56;;;;;;;0.77;0.77;;;;;;;;;;5071663;28;20327;-81
2022/09/23 03:23:25;;;;;;;0.83;0.83;;;;;;;;;;5070868;28;20224;-81
2022/09/23 03:25:53;;;;;;;1.30;1.30;;;;;;;;;;5071706;28;20197;-81
2022/09/23 03:28:21;;;;;;;1.20;1.10;;;;;;;;;;5071489;28;20237;-81
2022/09/23 03:30:49;;;;;;;1.60;0.90;;;;;;;;;;5071270;28;22126;-81
2022/09/23 03:33:20;;;;;;;0.80;0.80;;;;;;;;;;5071551;28;20249;-81
2022/09/23 03:38:38;;;;;;;2.57;1.10;;;;;;;;;;5071055;28;20262;-80
2022/09/23 03:41:05;;;;;;;3.40;3.13;;;;;;;;;;5070080;28;20205;-81
2022/09/23 03:43:32;;;;;;;2.73;2.53;;;;;;;;;;5072775;28;20251;-81
2022/09/23 03:46:00;;;;;;;4.47;1.60;;;;;;;;;;5072527;28;20193;-80
2022/09/23 03:48:28;;;;;;;0.97;0.97;;;;;;;;;;5072248;28;20201;-80
2022/09/23 03:50:55;;;;;;;0.70;0.70;;;;;;;;;;5073019;28;20225;-80
2022/09/23 03:53:21;;;;;;;0.87;0.87;;;;;;;;;;5072582;28;20215;-79
2022/09/23 03:55:48;;;;;;;0.70;0.70;;;;;;;;;;5072826;28;20630;-80
2022/09/23 03:58:15;;;;;;;0.90;0.90;;;;;;;;;;5069765;28;20216;-76
2022/09/23 04:00:43;;;;;;;1.03;0.97;;;;;;;;;;5070366;28;20292;-83
2022/09/23 04:03:11;;;;;;;18.67;9.27;;;;;;;;;;5055012;28;20255;-82
2022/09/23 04:05:40;;;;;;;5.90;4.03;;;;;;;;;;5064539;28;20204;-83
2022/09/23 04:08:06;;;;;;;2.30;2.13;;;;;;;;;;5071700;28;20662;-83
2022/09/23 04:10:35;;;;;;;1.60;1.50;;;;;;;;;;5060461;28;20223;-83
2022/09/23 04:13:01;;;;;;;1.00;1.00;;;;;;;;;;5058671;28;20275;-84
2022/09/23 04:15:28;;;;;;;1.00;1.00;;;;;;;;;;5068265;28;20589;-84
2022/09/23 04:17:58;;;;;;;0.60;0.60;;;;;;;;;;5071990;28;20212;-83
2022/09/23 04:20:28;;;;;;;1.03;1.03;;;;;;;;;;5071776;28;20213;-84
2022/09/23 04:22:57;;;;;;;0.97;0.97;;;;;;;;;;5071954;28;20582;-83
2022/09/23 04:25:24;;;;;;;0.80;0.80;;;;;;;;;;5071965;28;20212;-83
2022/09/23 04:27:51;;;;;;;0.93;0.93;;;;;;;;;;5065625;28;20201;-83
2022/09/23 04:30:18;;;;;;;0.60;0.60;;;;;;;;;;5062318;28;20221;-83
2022/09/23 04:32:45;;;;;;;0.77;0.77;;;;;;;;;;5071390;28;20588;-83
2022/09/23 04:35:12;;;;;;;0.53;0.53;;;;;;;;;;5071152;28;20205;-83
2022/09/23 04:37:38;;;;;;;0.90;0.90;;;;;;;;;;5071021;28;20706;-83
2022/09/23 04:40:08;;;;;;;0.63;0.63;;;;;;;;;;5070602;28;20223;-83
2022/09/23 04:42:35;;;;;;;1.07;1.07;;;;;;;;;;5071180;28;20703;-83
2022/09/23 04:45:03;;;;;;;0.93;0.93;;;;;;;;;;5071791;28;20205;-83
2022/09/23 04:47:31;;;;;;;0.70;0.70;;;;;;;;;;5071803;28;20201;-84
2022/09/23 04:49:58;;;;;;;0.63;0.63;;;;;;;;;;5071551;28;20205;-84
2022/09/23 04:52:26;;;;;;;0.67;0.60;;;;;;;;;;5071552;28;20664;-84
2022/09/23 04:54:52;;;;;;;0.90;0.90;;;;;;;;;;5070846;28;20229;-84
2022/09/23 04:57:20;;;;;;;1.30;1.20;;;;;;;;;;5071497;28;20209;-84
2022/09/23 04:59:47;;;;;;;0.80;0.80;;;;;;;;;;5071040;28;20634;-84
2022/09/23 05:02:14;;;;;;;0.80;0.80;;;;;;;;;;5071663;28;20576;-84
2022/09/23 05:04:41;;;;;;;1.03;1.00;;;;;;;;;;5070768;28;20209;-84
2022/09/23 05:07:08;;;;;;;1.53;1.23;;;;;;;;;;5071144;28;20209;-84
2022/09/23 05:09:34;;;;;;;1.60;1.50;;;;;;;;;;5070732;28;20205;-83
2022/09/23 05:12:02;;;;;;;1.00;1.00;;;;;;;;;;5069961;28;20224;-84
2022/09/23 05:14:30;;;;;;;1.13;1.03;;;;;;;;;;5071203;28;20196;-84
2022/09/23 05:16:57;;;;;;;0.80;0.80;;;;;;;;;;5070724;28;20667;-83
2022/09/23 05:19:23;;;;;;;1.00;1.00;;;;;;;;;;5070785;28;20227;-84
2022/09/23 05:21:50;;;;;;;1.53;1.43;;;;;;;;;;5070253;28;20201;-84
2022/09/23 05:24:17;;;;;;;1.23;1.23;;;;;;;;;;5070275;28;20205;-84
2022/09/23 05:26:44;;;;;;;1.00;0.90;;;;;;;;;;5070756;28;20722;-84
2022/09/23 05:29:11;;;;;;;1.20;1.10;;;;;;;;;;5069336;28;20288;-84
2022/09/23 05:31:39;;;;;;;1.63;1.53;;;;;;;;;;5070410;28;20221;-84
2022/09/23 05:34:06;;;;;;;2.07;1.90;;;;;;;;;;5070295;28;20224;-84
2022/09/23 05:36:35;;;;;;;1.87;1.60;;;;;;;;;;5070595;28;20189;-83
2022/09/23 05:39:01;;;;;;;1.00;1.00;;;;;;;;;;5070396;28;20208;-84
2022/09/23 05:41:28;;;;;;;0.80;0.80;;;;;;;;;;5070595;28;20198;-83
2022/09/23 05:43:56;;;;;;;1.17;1.10;;;;;;;;;;5070619;28;20579;-84
2022/09/23 05:46:25;;;;;;;1.00;1.00;;;;;;;;;;5063275;28;20197;-83
2022/09/23 05:48:53;;;;;;;0.90;0.90;;;;;;;;;;5070212;28;20201;-83
2022/09/23 05:51:21;;;;;;;1.03;1.03;;;;;;;;;;5070112;28;20224;-83
2022/09/23 05:53:51;;;;;;;0.93;0.93;;;;;;;;;;5070323;28;20212;-84
2022/09/23 05:56:19;;;;;;;1.03;1.03;;;;;;;;;;5070396;28;20212;-84
2022/09/23 05:58:48;;;;;;;1.00;0.97;;;;;;;;;;5070159;28;20197;-83
2022/09/23 06:01:20;;;;;;;0.80;0.80;;;;;;;;;;5070545;28;20201;-83
2022/09/23 06:03:47;;;;;;;1.57;1.23;;;;;;;;;;5069636;28;20247;-83
2022/09/23 06:06:16;;;;;;;1.53;1.43;;;;;;;;;;5070047;28;20587;-83
2022/09/23 06:08:43;;;;;;;1.63;1.53;;;;;;;;;;5070391;28;20201;-83
2022/09/23 06:11:11;;;;;;;1.10;1.10;;;;;;;;;;5070305;28;20224;-83
2022/09/23 06:13:38;;;;;;;1.30;1.20;;;;;;;;;;5069738;28;20212;-84
2022/09/23 06:16:06;;;;;;;1.57;1.47;;;;;;;;;;5070181;28;20205;-83
2022/09/23 06:18:33;;;;;;;1.70;1.30;;;;;;;;;;5070228;28;20224;-83
2022/09/23 06:21:01;;;;;;;1.13;1.13;;;;;;;;;;5070105;28;20293;-84
2022/09/23 06:23:30;;;;;;;1.10;0.97;;;;;;;;;;5071452;28;20234;-83
2022/09/23 06:26:00;;;;;;;1.23;1.13;;;;;;;;;;5073886;28;20196;-83
2022/09/23 06:28:31;;;;;;;1.40;1.30;;;;;;;;;;5073964;28;20615;-84
2022/09/23 06:30:58;;;;;;;0.83;0.83;;;;;;;;;;5073419;28;20264;-83
2022/09/23 06:33:25;;;;;;;1.60;1.47;;;;;;;;;;5059873;28;20713;-84
2022/09/23 06:35:55;;;;;;;1.43;1.33;;;;;;;;;;5073843;28;20231;-83
2022/09/23 06:38:22;;;;;;;1.63;1.53;;;;;;;;;;5073330;28;20202;-83
2022/09/23 06:40:51;;;;;;;1.03;1.00;;;;;;;;;;5073747;28;20232;-83
2022/09/23 06:43:18;;;;;;;1.07;1.07;;;;;;;;;;5072838;28;20228;-83
2022/09/23 06:45:44;;;;;;;1.27;1.17;;;;;;;;;;5073655;28;20201;-83
2022/09/23 06:48:11;;;;;;;0.93;0.93;;;;;;;;;;5073655;28;20201;-83
2022/09/23 06:50:38;;;;;;;0.83;0.83;;;;;;;;;;5071456;28;20197;-83
2022/09/23 06:53:05;;;;;;;0.90;0.90;;;;;;;;;;5066438;28;20220;-82
2022/09/23 06:55:31;;;;;;;1.37;1.27;;;;;;;;;;5059526;28;20207;-83
2022/09/23 06:58:00;;;;;;;1.13;1.10;;;;;;;;;;5072923;28;20208;-82
2022/09/23 07:00:28;;;;;;;0.97;0.97;;;;;;;;;;5073498;28;20193;-83
2022/09/23 07:02:55;;;;;;;1.33;1.23;;;;;;;;;;5073549;28;20303;-83
2022/09/23 07:05:22;;;;;;;1.00;1.00;;;;;;;;;;5073043;28;20239;-82
2022/09/23 07:07:49;;;;;;;1.00;1.00;;;;;;;;;;5073025;28;20208;-82
2022/09/23 07:10:19;;;;;;;1.30;1.20;;;;;;;;;;5073090;28;20698;-83
2022/09/23 07:12:45;;;;;;;1.17;1.17;;;;;;;;;;5072673;28;20879;-82
2022/09/23 07:15:14;;;;;;;1.47;1.40;;;;;;;;;;5072679;28;20209;-82
2022/09/23 07:17:42;;;;;;;0.80;0.80;;;;;;;;;;5072984;28;20200;-82
2022/09/23 07:20:11;;;;;;;1.20;1.20;;;;;;;;;;5072926;28;20251;-82
2022/09/23 07:22:38;;;;;;;1.03;1.03;;;;;;;;;;5072793;28;20687;-82
2022/09/23 07:25:05;;;;;;;1.20;1.10;;;;;;;;;;5072284;28;20299;-82
2022/09/23 07:27:33;;;;;;;1.30;1.20;;;;;;;;;;5073168;28;20225;-82
2022/09/23 07:29:59;;;;;;;1.40;1.30;;;;;;;;;;5072870;28;20294;-83
2022/09/23 07:32:28;;;;;;;1.40;1.30;;;;;;;;;;5072996;28;20233;-82
2022/09/23 07:34:55;;;;;;;1.40;1.30;;;;;;;;;;5071622;28;20230;-82
2022/09/23 07:37:21;;;;;;;1.40;1.30;;;;;;;;;;5072771;28;20255;-82
2022/09/23 07:39:49;;;;;;;1.27;1.27;;;;;;;;;;5072321;28;20201;-80
2022/09/23 07:42:16;;;;;;;1.07;1.07;;;;;;;;;;5073034;28;20205;-80
2022/09/23 07:44:44;;;;;;;0.97;0.97;;;;;;;;;;5072211;28;20228;-80
2022/09/23 07:47:11;;;;;;;0.70;0.70;;;;;;;;;;5072768;28;20216;-80
2022/09/23 07:49:39;;;;;;;1.20;1.20;;;;;;;;;;5072175;28;20228;-81
2022/09/23 07:52:05;;;;;;;1.00;1.00;;;;;;;;;;5071847;28;20229;-80
2022/09/23 07:54:32;;;;;;;1.27;1.17;;;;;;;;;;5072426;28;20634;-80
2022/09/23 07:56:59;;;;;;;1.23;0.90;;;;;;;;;;5072194;28;20209;-80
2022/09/23 07:59:26;;;;;;;1.10;1.10;;;;;;;;;;5072189;28;20198;-80
2022/09/23 08:01:53;;;;;;;1.03;1.03;;;;;;;;;;5072152;28;20692;-80
2022/09/23 08:04:22;;;;;;;1.10;1.10;;;;;;;;;;5072146;28;20260;-81
2022/09/23 08:06:52;;;;;;;1.40;1.30;;;;;;;;;;5071489;28;20201;-81
2022/09/23 08:09:21;;;;;;;1.23;1.03;;;;;;;;;;5072014;28;20202;-80
2022/09/23 08:11:48;;;;;;;1.10;1.10;;;;;;;;;;5072327;28;20293;-80
2022/09/23 08:14:16;;;;;;;1.03;1.03;;;;;;;;;;5058190;28;20265;-80
2022/09/23 08:16:44;;;;;;;1.57;1.47;;;;;;;;;;5071762;28;20202;-80
2022/09/23 08:19:11;;;;;;;1.10;1.10;;;;;;;;;;5071458;28;20230;-80
2022/09/23 08:21:39;;;;;;;1.23;1.20;;;;;;;;;;5071745;28;20226;-80
2022/09/23 08:24:07;;;;;;;1.30;1.30;;;;;;;;;;5071626;28;20201;-80
2022/09/23 08:26:35;;;;;;;2.70;1.07;;;;;;;;;;5072195;28;20269;-80
2022/09/23 08:29:02;;;;;;;1.00;1.00;;;;;;;;;;5071588;28;20200;-80
2022/09/23 08:31:29;;;;;;;2.80;2.47;;;;;;;;;;5071607;28;20195;-80
2022/09/23 08:33:56;;;;;;;1.27;1.17;;;;;;;;;;5071459;28;20231;-81
2022/09/23 08:36:23;;;;;;;1.80;1.40;;;;;;;;;;5071348;28;20215;-80
2022/09/23 08:38:50;;;;;;;1.30;1.20;;;;;;;;;;5071439;28;20207;-80
2022/09/23 08:41:23;;;;;;;1.00;1.00;;;;;;;;;;5071660;28;20257;-80
2022/09/23 08:43:54;;;;;;;1.30;1.20;;;;;;;;;;5071150;28;20670;-80
2022/09/23 08:46:33;;;;;;;0.93;0.93;;;;;;;;;;5070764;28;20202;-80
2022/09/23 08:49:00;;;;;;;2.00;1.43;;;;;;;;;;5070999;28;20204;-81
2022/09/23 08:51:31;;;;;;;1.00;1.00;;;;;;;;;;5071090;28;20211;-80
2022/09/23 08:53:58;;;;;;;0.90;0.90;;;;;;;;;;5071207;28;20596;-80
2022/09/23 08:56:27;;;;;;;1.10;1.10;;;;;;;;;;5070961;28;20582;-80
2022/09/23 08:59:00;;;;;;;1.17;1.07;;;;;;;;;;5070627;28;20212;-80
2022/09/23 09:01:31;;;;;;;1.10;1.10;;;;;;;;;;5071233;28;20702;-81
2022/09/23 09:04:00;;;;;;;1.30;1.20;;;;;;;;;;5070978;28;20204;-79
2022/09/23 09:06:30;;;;;;;1.33;1.27;;;;;;;;;;5071086;28;20223;-80
2022/09/23 09:09:00;;;;;;;2.10;2.00;;;;;;;;;;5070448;28;20194;-81
2022/09/23 09:11:34;;;;;;;5.20;3.97;;;;;;;;;;5070456;28;20213;-80
2022/09/23 09:14:06;;;;;;;1.80;1.70;;;;;;;;;;5069378;28;20210;-80
2022/09/23 09:16:47;;;;;;;1.07;1.07;;;;;;;;;;5070949;28;20282;-81
2022/09/23 09:19:19;;;;;;;0.80;0.80;;;;;;;;;;5070626;28;20211;-80
2022/09/23 09:21:47;;;;;;;1.23;1.23;;;;;;;;;;5070491;28;20201;-87
2022/09/23 09:24:19;;;;;;;1.30;1.20;;;;;;;;;;5072050;28;20235;-86
2022/09/23 09:26:47;;;;;;;1.40;1.30;;;;;;;;;;5072115;28;20293;-90
2022/09/23 09:29:29;;;;;;;3.47;1.27;;;;;;;;;;5057928;28;20209;-88
2022/09/23 09:35:37;;;;;;;1.00;0.90;;;;;;;;;;5050442;28;20730;-84
2022/09/23 09:38:05;;;;;;;1.60;1.27;;;;;;;;;;5070979;28;20205;-85
2022/09/23 09:43:58;;;;;;;27.97;15.80;;;;;;;;;;5053877;28;20224;-83
2022/09/23 09:46:53;;;;;;;33.43;19.10;;;;;;;;;;5071162;28;20220;-82
2022/09/23 09:49:30;;;;;;;18.00;9.07;;;;;;;;;;5070677;28;20200;-85
2022/09/23 09:52:22;;;;;;;8.23;4.60;;;;;;;;;;5070796;28;20738;-85
2022/09/23 09:54:55;;;;;;;2.27;2.13;;;;;;;;;;5070912;28;20209;-86
2022/09/23 09:57:31;;;;;;;2.23;1.20;;;;;;;;;;5070649;28;20251;-87
2022/09/23 10:00:20;;;;;;;1.10;1.10;;;;;;;;;;5071061;28;20201;-87
2022/09/23 10:20:38;;;;;;;1.10;1.10;;;;;;;;;;4955242;27;4675451;-87
2022/09/23 10:23:13;;;;;;;0.93;0.93;;;;;;;;;;5090166;28;20208;-86
2022/09/23 10:25:44;;;;;;;0.87;0.87;;;;;;;;;;5088565;28;20204;-86
2022/09/23 10:28:45;;;;;;;1.70;1.40;;;;;;;;;;5106867;28;20238;-87
2022/09/23 10:31:17;;;;;;;1.23;1.23;;;;;;;;;;5108434;28;20235;-86
2022/09/23 10:33:49;;;;;;;0.90;0.90;;;;;;;;;;5100543;28;20686;-88
2022/09/23 10:36:21;;;;;;;1.40;1.30;;;;;;;;;;5088753;28;20200;-86
2022/09/23 10:38:55;;;;;;;15.70;7.73;;;;;;;;;;5100525;28;20235;-85
2022/09/23 10:47:26;;;;;;;6.97;4.33;;;;;;;;;;5099124;28;20336;-87
2022/09/23 10:50:19;;;;;;;7.13;5.53;;;;;;;;;;5102672;28;20319;-87
2022/09/23 10:52:58;;;;;;;3.77;2.80;;;;;;;;;;5108683;28;20231;-87
2022/09/23 10:55:43;;;;;;;2.40;1.87;;;;;;;;;;5089454;28;20214;-86
2022/09/23 10:58:32;;;;;;;1.97;1.87;;;;;;;;;;5099375;28;20215;-87
2022/09/23 11:01:07;;;;;;;2.47;1.97;;;;;;;;;;5088169;28;20202;-87
2022/09/23 11:03:46;;;;;;;1.43;1.33;;;;;;;;;;5088690;28;20207;-87
2022/09/23 11:06:18;;;;;;;1.73;1.63;;;;;;;;;;5107850;28;20286;-88
2022/09/23 11:09:01;;;;;;;1.70;1.60;;;;;;;;;;5093142;28;20237;-87
2022/09/23 11:11:38;;;;;;;1.37;1.30;;;;;;;;;;5097647;28;20204;-87
2022/09/23 11:14:25;;;;;;;1.30;1.20;;;;;;;;;;5087350;28;20208;-87
2022/09/23 11:17:12;;;;;;;1.43;1.33;;;;;;;;;;5090384;28;20215;-88
2022/09/23 11:20:01;;;;;;;1.27;1.00;;;;;;;;;;5090187;28;20223;-87
2022/09/23 11:22:36;;;;;;;1.17;1.17;;;;;;;;;;5094389;28;20197;-87
2022/09/23 11:25:41;;;;;;;0.90;0.90;;;;;;;;;;5082065;28;20212;-87
2022/09/23 11:28:35;;;;;;;1.63;1.53;;;;;;;;;;4999131;28;20214;-89
2022/09/23 11:31:09;;;;;;;1.63;1.53;;;;;;;;;;5057181;28;20220;-89
2022/09/23 11:33:47;;;;;;;1.50;1.40;;;;;;;;;;5083841;28;20196;-90
2022/09/23 11:36:23;;;;;;;1.80;1.30;;;;;;;;;;5080521;28;20215;-90
2022/09/23 11:38:52;;;;;;;1.07;1.07;;;;;;;;;;5094452;28;20230;-89
2022/09/23 11:41:24;;;;;;;0.93;0.93;;;;;;;;;;5091872;28;20217;-89
2022/09/23 11:43:57;;;;;;;1.10;1.10;;;;;;;;;;5074076;28;20209;-89
2022/09/23 11:46:29;;;;;;;1.07;1.07;;;;;;;;;;5090970;28;20686;-89
2022/09/23 11:48:59;;;;;;;0.87;0.87;;;;;;;;;;5093803;28;20235;-89
2022/09/23 11:51:29;;;;;;;0.83;0.83;;;;;;;;;;5077964;28;20685;-90
2022/09/23 11:53:59;;;;;;;2.10;1.30;;;;;;;;;;5073757;28;20212;-89
2022/09/23 11:56:30;;;;;;;1.10;1.00;;;;;;;;;;5087992;28;20242;-90
2022/09/23 11:59:01;;;;;;;0.80;0.80;;;;;;;;;;5082216;28;20208;-90
2022/09/23 12:01:32;;;;;;;1.63;1.53;;;;;;;;;;5093864;28;20211;-88
2022/09/23 12:04:04;;;;;;;1.07;1.07;;;;;;;;;;5094177;28;20291;-91
2022/09/23 12:06:37;;;;;;;0.90;0.90;;;;;;;;;;5079281;28;20212;-89
2022/09/23 12:09:12;;;;;;;0.90;0.90;;;;;;;;;;5093979;28;20229;-92
2022/09/23 12:11:43;;;;;;;1.00;1.00;;;;;;;;;;5079881;28;20216;-89
2022/09/23 12:14:16;;;;;;;1.10;1.10;;;;;;;;;;5093642;28;20562;-89
2022/09/23 12:17:19;;;;;;;1.00;1.00;;;;;;;;;;5093520;28;20343;-89
2022/09/23 12:20:09;;;;;;;1.00;1.00;;;;;;;;;;5077799;28;20228;-89
2022/09/23 12:22:46;;;;;;;1.03;1.03;;;;;;;;;;5093479;28;20200;-89
2022/09/23 12:25:31;;;;;;;0.97;0.97;;;;;;;;;;5093224;28;20274;-91
2022/09/23 12:28:04;;;;;;;1.10;1.10;;;;;;;;;;5093358;28;20217;-90
2022/09/23 12:30:33;;;;;;;0.93;0.93;;;;;;;;;;5093029;28;20663;-90
2022/09/23 12:33:08;;;;;;;1.27;1.23;;;;;;;;;;5091922;28;20202;-89
2022/09/23 12:35:38;;;;;;;0.70;0.70;;;;;;;;;;5093424;28;20256;-87
2022/09/23 12:38:12;;;;;;;0.63;0.63;;;;;;;;;;5092627;28;20644;-87
2022/09/23 12:40:42;;;;;;;0.93;0.90;;;;;;;;;;5092055;28;20240;-86
2022/09/23 12:43:18;;;;;;;0.80;0.80;;;;;;;;;;5092011;28;20196;-88
2022/09/23 12:45:44;;;;;;;1.53;1.10;;;;;;;;;;5092598;28;20231;-88
2022/09/23 12:48:45;;;;;;;0.93;0.90;;;;;;;;;;5088372;28;20204;-86
2022/09/23 12:51:20;;;;;;;1.23;1.23;;;;;;;;;;5085856;28;20210;-87
2022/09/23 12:54:21;;;;;;;1.00;1.00;;;;;;;;;;5091944;28;20207;-86
2022/09/23 12:56:59;;;;;;;0.60;0.60;;;;;;;;;;5091501;28;20239;-86
2022/09/23 12:59:29;;;;;;;0.70;0.70;;;;;;;;;;5091379;28;20712;-86
2022/09/23 13:02:18;;;;;;;0.90;0.90;;;;;;;;;;5091401;28;20665;-87
2022/09/23 13:07:42;;;;;;;0.70;0.70;;;;;;;;;;5091354;28;20209;-89
2022/09/23 13:10:16;;;;;;;0.63;0.63;;;;;;;;;;5090831;28;20226;-85
2022/09/23 13:12:43;;;;;;;1.10;1.10;;;;;;;;;;5091580;28;20196;-83
2022/09/23 13:15:28;;;;;;;0.70;0.70;;;;;;;;;;5091342;28;20642;-85
2022/09/23 13:18:34;;;;;;;1.03;1.03;;;;;;;;;;5090950;28;20253;-85
2022/09/23 13:21:00;;;;;;;0.90;0.90;;;;;;;;;;5089844;28;20203;-86
2022/09/23 13:23:29;;;;;;;1.20;1.20;;;;;;;;;;5091032;28;20214;-84
2022/09/23 13:25:57;;;;;;;1.23;1.00;;;;;;;;;;5090771;28;20219;-84
2022/09/23 13:28:28;;;;;;;0.80;0.80;;;;;;;;;;5088859;28;20215;-84
2022/09/23 13:30:57;;;;;;;1.00;1.00;;;;;;;;;;5077320;28;20590;-84
2022/09/23 13:33:31;;;;;;;1.23;1.00;;;;;;;;;;5083067;28;20291;-82
2022/09/23 13:36:02;;;;;;;0.77;0.77;;;;;;;;;;5083964;28;20205;-83
2022/09/23 13:38:36;;;;;;;0.70;0.70;;;;;;;;;;5081435;28;20265;-83
2022/09/23 13:41:07;;;;;;;1.37;1.27;;;;;;;;;;5090696;28;20719;-84
2022/09/23 13:43:38;;;;;;;0.60;0.60;;;;;;;;;;5076123;28;20214;-83
2022/09/23 13:46:10;;;;;;;0.80;0.80;;;;;;;;;;5089516;28;20235;-83
2022/09/23 13:48:37;;;;;;;1.00;1.00;;;;;;;;;;5081281;28;20214;-83
2022/09/23 13:51:09;;;;;;;0.90;0.90;;;;;;;;;;5083591;28;20236;-84
2022/09/23 13:53:36;;;;;;;0.90;0.90;;;;;;;;;;5084066;28;20218;-84
2022/09/23 13:56:06;;;;;;;1.10;1.10;;;;;;;;;;5090457;28;20211;-85
2022/09/23 13:58:34;;;;;;;1.30;1.20;;;;;;;;;;5090723;28;20199;-84
2022/09/23 14:01:01;;;;;;;0.80;0.80;;;;;;;;;;5090497;28;20700;-85
2022/09/23 14:03:31;;;;;;;1.17;1.17;;;;;;;;;;5090206;28;20210;-84
2022/09/23 14:05:59;;;;;;;0.70;0.70;;;;;;;;;;5090281;28;20664;-85
2022/09/23 14:08:27;;;;;;;0.90;0.90;;;;;;;;;;5090443;28;20288;-83
2022/09/23 14:10:55;;;;;;;1.07;1.07;;;;;;;;;;5090007;28;20235;-84
2022/09/23 14:13:23;;;;;;;0.80;0.80;;;;;;;;;;5090899;28;20584;-83
2022/09/23 14:15:50;;;;;;;0.70;0.70;;;;;;;;;;5089773;28;20231;-83
2022/09/23 14:18:21;;;;;;;0.70;0.70;;;;;;;;;;5090566;28;20218;-83
2022/09/23 14:20:49;;;;;;;0.80;0.80;;;;;;;;;;5090683;28;20219;-83
2022/09/23 14:23:17;;;;;;;0.60;0.60;;;;;;;;;;5090494;28;20206;-84
2022/09/23 14:25:44;;;;;;;0.97;0.97;;;;;;;;;;5089976;28;20208;-83
2022/09/23 14:28:15;;;;;;;0.73;0.73;;;;;;;;;;5090498;28;20203;-82
2022/09/23 14:30:44;;;;;;;0.70;0.70;;;;;;;;;;5090347;28;20261;-83
2022/09/23 14:33:15;;;;;;;0.80;0.80;;;;;;;;;;5090426;28;20207;-82
2022/09/23 14:35:45;;;;;;;1.00;1.00;;;;;;;;;;5089774;28;20684;-83
2022/09/23 14:41:17;;;;;;;0.60;0.60;;;;;;;;;;5075726;28;20211;-84
2022/09/23 14:43:49;;;;;;;0.70;0.70;;;;;;;;;;5073013;28;20203;-77
2022/09/23 14:46:18;;;;;;;0.70;0.70;;;;;;;;;;5083592;28;20288;-81
2022/09/23 14:48:53;;;;;;;0.77;0.77;;;;;;;;;;5084571;28;20200;-81
2022/09/23 14:51:20;;;;;;;0.90;0.90;;;;;;;;;;5086510;28;20210;-82
2022/09/23 14:53:49;;;;;;;2.37;1.93;;;;;;;;;;5076448;28;20199;-81
2022/09/23 14:56:18;;;;;;;2.67;2.03;;;;;;;;;;5092247;28;20211;-81
2022/09/23 14:58:51;;;;;;;1.13;1.13;;;;;;;;;;5093130;28;20204;-80
2022/09/23 15:01:34;;;;;;;1.40;1.30;;;;;;;;;;5079353;28;20202;-82
2022/09/23 15:04:10;;;;;;;1.00;1.00;;;;;;;;;;5093546;28;20222;-80
2022/09/23 15:06:37;;;;;;;1.20;1.10;;;;;;;;;;5081124;28;20222;-80
2022/09/23 15:09:07;;;;;;;1.00;1.00;;;;;;;;;;5079507;28;20211;-81
2022/09/23 15:11:34;;;;;;;1.80;1.70;;;;;;;;;;5079407;28;20597;-80
2022/09/23 15:14:03;;;;;;;0.77;0.77;;;;;;;;;;5093102;28;20213;-81
2022/09/23 15:16:33;;;;;;;2.40;2.20;;;;;;;;;;5093231;28;20236;-80
2022/09/23 15:19:00;;;;;;;1.30;1.20;;;;;;;;;;5081916;28;20238;-81
2022/09/23 15:21:34;;;;;;;0.80;0.80;;;;;;;;;;5076906;28;20204;-82
2022/09/23 15:24:01;;;;;;;0.90;0.90;;;;;;;;;;5093241;28;20209;-80
2022/09/23 15:26:48;;;;;;;0.70;0.70;;;;;;;;;;5093241;28;20215;-81
2022/09/23 15:29:15;;;;;;;1.07;1.07;;;;;;;;;;5093362;28;20209;-81
2022/09/23 15:31:41;;;;;;;0.83;0.83;;;;;;;;;;5093265;28;20205;-81
2022/09/23 15:34:10;;;;;;;0.97;0.97;;;;;;;;;;5083069;28;20205;-80
2022/09/23 15:36:37;;;;;;;0.80;0.80;;;;;;;;;;5087227;28;20215;-81
2022/09/23 15:39:07;;;;;;;0.63;0.63;;;;;;;;;;5081191;28;20699;-81
2022/09/23 15:41:35;;;;;;;0.90;0.90;;;;;;;;;;5091780;28;20202;-80
2022/09/23 15:44:05;;;;;;;1.20;1.20;;;;;;;;;;5091908;28;20284;-81
2022/09/23 15:46:32;;;;;;;0.70;0.70;;;;;;;;;;5092058;28;20202;-80